createdAt,value
2022-10-17T00:00:45.730Z,27.37
2022-10-17T00:03:13.306Z,25.77
2022-10-17T00:05:46.642Z,25.60
2022-10-17T00:08:13.882Z,29.10
2022-10-17T00:10:43.217Z,28.10
2022-10-17T00:13:10.252Z,26.00
2022-10-17T00:15:36.992Z,24.47
2022-10-17T00:18:03.930Z,27.30
2022-10-17T00:20:32.690Z,25.77
2022-10-17T00:22:59.519Z,28.37
2022-10-17T00:25:30.769Z,27.13
2022-10-17T00:27:57.513Z,26.23
2022-10-17T00:30:24.320Z,28.73
2022-10-17T00:32:53.330Z,25.00
2022-10-17T00:35:20.102Z,24.43
2022-10-17T00:37:49.087Z,23.70
2022-10-17T00:40:15.842Z,26.17
2022-10-17T00:42:42.578Z,26.17
2022-10-17T00:45:22.266Z,27.37
2022-10-17T00:47:53.227Z,25.60
2022-10-17T00:50:20.185Z,24.17
2022-10-17T00:52:47.271Z,23.90
2022-10-17T00:55:21.751Z,23.73
2022-10-17T00:57:48.550Z,26.13
2022-10-17T01:00:18.011Z,24.07
2022-10-17T01:02:45.147Z,25.07
2022-10-17T01:05:12.122Z,28.73
2022-10-17T01:07:39.786Z,27.27
2022-10-17T01:10:06.884Z,25.63
2022-10-17T01:13:07.322Z,25.77
2022-10-17T01:15:36.267Z,24.70
2022-10-17T01:18:18.650Z,26.83
2022-10-17T01:20:48.478Z,24.53
2022-10-17T01:23:43.150Z,27.90
2022-10-17T01:26:31.808Z,24.27
2022-10-17T01:29:08.863Z,27.30
2022-10-17T01:31:55.242Z,31.07
2022-10-17T01:34:32.435Z,26.20
2022-10-17T01:37:07.342Z,28.27
2022-10-17T01:39:46.956Z,23.60
2022-10-17T01:42:23.846Z,24.23
2022-10-17T01:45:09.104Z,27.63
2022-10-17T01:47:38.456Z,26.83
2022-10-17T01:50:36.450Z,27.17
2022-10-17T01:53:06.630Z,25.60
2022-10-17T01:55:37.553Z,29.87
2022-10-17T01:58:15.710Z,31.30
2022-10-17T02:00:43.031Z,25.87
2022-10-17T02:03:10.757Z,23.20
2022-10-17T02:05:41.615Z,27.07
2022-10-17T02:08:08.571Z,28.43
2022-10-17T02:10:53.552Z,25.57
2022-10-17T02:13:42.078Z,24.10
2022-10-17T02:16:20.893Z,25.30
2022-10-17T02:18:53.517Z,30.80
2022-10-17T02:21:39.057Z,24.90
2022-10-17T02:24:41.825Z,25.23
2022-10-17T02:27:10.807Z,27.57
2022-10-17T02:29:45.771Z,28.60
2022-10-17T02:32:18.936Z,26.67
2022-10-17T02:34:50.751Z,27.20
2022-10-17T02:37:19.629Z,26.37
2022-10-17T02:39:46.434Z,24.53
2022-10-17T02:42:13.605Z,25.17
2022-10-17T02:44:44.130Z,26.33
2022-10-17T02:47:27.370Z,27.47
2022-10-17T02:49:56.007Z,26.90
2022-10-17T02:52:30.988Z,24.17
2022-10-17T02:55:23.647Z,27.50
2022-10-17T02:57:52.835Z,25.50
2022-10-17T03:00:20.065Z,25.27
2022-10-17T03:02:48.493Z,27.63
2022-10-17T03:05:18.208Z,26.73
2022-10-17T03:07:47.832Z,24.00
2022-10-17T03:10:14.716Z,27.00
2022-10-17T03:12:41.468Z,28.77
2022-10-17T03:15:11.174Z,23.80
2022-10-17T03:17:38.109Z,30.47
2022-10-17T03:20:05.573Z,24.67
2022-10-17T03:22:32.697Z,25.80
2022-10-17T03:24:59.557Z,32.07
2022-10-17T03:27:28.999Z,26.27
2022-10-17T03:29:55.889Z,26.03
2022-10-17T03:32:24.766Z,26.03
2022-10-17T03:34:53.745Z,26.03
2022-10-17T03:37:20.502Z,26.87
2022-10-17T03:39:47.258Z,28.57
2022-10-17T03:42:16.543Z,25.97
2022-10-17T03:44:45.537Z,30.97
2022-10-17T03:47:14.166Z,25.60
2022-10-17T03:49:41.194Z,27.23
2022-10-17T03:52:12.558Z,27.17
2022-10-17T03:54:42.701Z,27.07
2022-10-17T03:57:09.482Z,29.93
2022-10-17T03:59:38.853Z,29.07
2022-10-17T04:02:05.598Z,28.20
2022-10-17T04:04:34.781Z,27.37
2022-10-17T04:07:01.567Z,29.17
2022-10-17T04:09:30.836Z,26.90
2022-10-17T04:11:57.585Z,26.63
2022-10-17T04:14:26.627Z,28.83
2022-10-17T04:16:53.657Z,29.23
2022-10-17T04:19:20.572Z,27.83
2022-10-17T04:21:47.474Z,31.53
2022-10-17T04:24:18.832Z,31.03
2022-10-17T04:26:45.588Z,28.30
2022-10-17T04:29:12.364Z,27.67
2022-10-17T04:31:41.484Z,28.77
2022-10-17T04:34:08.221Z,28.07
2022-10-17T04:36:34.962Z,29.87
2022-10-17T04:39:03.575Z,30.57
2022-10-17T04:41:30.408Z,26.13
2022-10-17T04:43:57.336Z,35.10
2022-10-17T04:46:26.829Z,25.73
2022-10-17T04:48:54.215Z,30.73
2022-10-17T04:51:23.269Z,31.90
2022-10-17T04:53:55.037Z,35.40
2022-10-17T04:56:23.007Z,31.13
2022-10-17T04:58:49.963Z,27.23
2022-10-17T05:01:19.634Z,32.47
2022-10-17T05:03:46.545Z,30.23
2022-10-17T05:06:14.882Z,31.87
2022-10-17T05:08:41.754Z,33.63
2022-10-17T05:11:34.927Z,36.47
2022-10-17T05:14:01.970Z,34.43
2022-10-17T05:16:28.862Z,37.10
2022-10-17T05:18:56.969Z,32.47
2022-10-17T05:21:24.594Z,30.93
2022-10-17T05:23:51.476Z,29.93
2022-10-17T05:26:21.362Z,34.53
2022-10-17T05:28:52.494Z,31.07
2022-10-17T05:31:19.452Z,30.30
2022-10-17T05:33:46.305Z,32.77
2022-10-17T05:36:13.072Z,34.13
2022-10-17T05:38:42.276Z,33.80
2022-10-17T05:41:09.912Z,36.03
2022-10-17T05:43:36.666Z,36.10
2022-10-17T05:46:07.373Z,33.37
2022-10-17T05:48:39.163Z,33.17
2022-10-17T05:51:08.851Z,32.53
2022-10-17T05:53:37.416Z,41.47
2022-10-17T05:56:08.238Z,36.30
2022-10-17T05:58:53.177Z,38.67
2022-10-17T06:01:24.378Z,30.67
2022-10-17T06:03:51.149Z,37.30
2022-10-17T06:06:21.139Z,33.40
2022-10-17T06:08:47.918Z,33.27
2022-10-17T06:11:14.658Z,34.03
2022-10-17T06:13:43.650Z,36.03
2022-10-17T06:16:12.992Z,35.80
2022-10-17T06:18:39.804Z,36.67
2022-10-17T06:21:08.681Z,35.83
2022-10-17T06:23:35.482Z,34.90
2022-10-17T06:26:02.909Z,36.43
2022-10-17T06:28:29.803Z,35.13
2022-10-17T06:30:56.653Z,39.70
2022-10-17T06:33:23.465Z,35.20
2022-10-17T06:35:56.544Z,34.53
2022-10-17T06:38:23.388Z,35.20
2022-10-17T06:40:50.200Z,37.00
2022-10-17T06:43:16.996Z,42.70
2022-10-17T06:45:43.851Z,32.63
2022-10-17T06:48:10.662Z,34.53
2022-10-17T06:50:37.443Z,39.70
2022-10-17T06:53:04.368Z,41.00
2022-10-17T06:55:35.779Z,37.20
2022-10-17T06:58:04.639Z,34.93
2022-10-17T07:00:31.426Z,43.57
2022-10-17T07:03:00.486Z,38.80
2022-10-17T07:05:29.702Z,41.03
2022-10-17T07:07:56.421Z,33.90
2022-10-17T07:10:23.383Z,41.60
2022-10-17T07:12:50.122Z,44.23
2022-10-17T07:15:16.909Z,34.60
2022-10-17T07:17:43.658Z,32.83
2022-10-17T07:20:10.943Z,37.10
2022-10-17T07:22:37.700Z,39.53
2022-10-17T07:25:07.807Z,38.57
2022-10-17T07:27:36.767Z,34.03
2022-10-17T07:30:05.949Z,34.43
2022-10-17T07:32:32.687Z,35.33
2022-10-17T07:34:59.421Z,40.10
2022-10-17T07:37:28.662Z,40.87
2022-10-17T07:39:57.729Z,42.40
2022-10-17T07:42:27.886Z,34.70
2022-10-17T07:44:55.190Z,41.20
2022-10-17T07:47:21.956Z,39.73
2022-10-17T07:49:51.107Z,37.73
2022-10-17T07:52:22.444Z,34.03
2022-10-17T07:54:51.310Z,37.13
2022-10-17T07:57:18.058Z,36.83
2022-10-17T07:59:44.802Z,35.40
2022-10-17T08:02:19.127Z,40.13
2022-10-17T08:04:45.880Z,41.13
2022-10-17T08:07:20.927Z,36.07
2022-10-17T08:09:49.993Z,37.43
2022-10-17T08:12:17.011Z,34.20
2022-10-17T08:14:43.924Z,39.40
2022-10-17T08:17:10.717Z,32.93
2022-10-17T08:19:43.557Z,36.93
2022-10-17T08:22:12.496Z,37.43
2022-10-17T08:24:42.846Z,34.20
2022-10-17T08:27:11.647Z,35.83
2022-10-17T08:29:41.226Z,32.20
2022-10-17T08:32:10.480Z,33.57
2022-10-17T08:34:40.115Z,31.17
2022-10-17T08:37:06.916Z,31.80
2022-10-17T08:39:33.694Z,31.97
2022-10-17T08:42:08.904Z,33.00
2022-10-17T08:45:10.694Z,34.57
2022-10-17T08:47:45.613Z,38.80
2022-10-17T08:50:20.919Z,28.53
2022-10-17T08:53:18.172Z,33.73
2022-10-17T08:55:47.061Z,32.77
2022-10-17T08:58:15.488Z,33.20
2022-10-17T09:00:47.614Z,30.53
2022-10-17T09:03:41.713Z,35.23
2022-10-17T09:06:31.507Z,33.90
2022-10-17T09:09:33.600Z,39.23
2022-10-17T09:12:17.336Z,34.47
2022-10-17T09:15:17.671Z,29.63
2022-10-17T09:17:59.642Z,28.43
2022-10-17T09:20:44.331Z,31.03
2022-10-17T09:23:17.435Z,33.13
2022-10-17T09:25:50.714Z,31.60
2022-10-17T09:28:28.889Z,35.73
2022-10-17T09:31:12.550Z,34.10
2022-10-17T09:33:59.530Z,36.50
2022-10-17T09:36:29.763Z,27.43
2022-10-17T09:38:59.656Z,26.23
2022-10-17T09:41:46.440Z,31.60
2022-10-17T09:44:22.537Z,43.43
2022-10-17T09:47:14.299Z,31.53
2022-10-17T09:49:42.593Z,28.70
2022-10-17T09:52:21.586Z,29.30
2022-10-17T09:55:18.676Z,29.77
2022-10-17T09:58:11.769Z,22.20
2022-10-17T10:00:43.077Z,29.77
2022-10-17T10:03:17.429Z,26.20
2022-10-17T10:06:05.324Z,26.03
2022-10-17T10:08:48.985Z,29.03
2022-10-17T10:11:15.786Z,25.60
2022-10-17T10:13:42.537Z,26.47
2022-10-17T10:16:44.592Z,24.87
2022-10-17T10:19:42.252Z,26.20
2022-10-17T10:22:16.246Z,30.07
2022-10-17T10:24:43.003Z,27.70
2022-10-17T10:27:16.299Z,28.63
2022-10-17T10:29:52.423Z,30.83
2022-10-17T10:32:26.306Z,27.27
2022-10-17T10:34:59.675Z,25.00
2022-10-17T10:37:43.615Z,43.73
2022-10-17T10:40:21.537Z,25.57
2022-10-17T10:42:50.333Z,33.57
2022-10-17T10:48:32.483Z,23.13
2022-10-17T10:51:17.205Z,22.07
2022-10-17T10:54:01.697Z,21.07
2022-10-17T10:56:49.803Z,18.43
2022-10-17T10:59:23.233Z,18.87
2022-10-17T11:02:11.899Z,21.10
2022-10-17T11:04:52.521Z,20.00
2022-10-17T11:07:33.294Z,21.30
2022-10-17T11:10:32.179Z,21.60
2022-10-17T11:13:20.142Z,22.60
2022-10-17T11:15:55.046Z,22.93
2022-10-17T11:18:28.384Z,20.20
2022-10-17T11:21:16.234Z,22.10
2022-10-17T11:23:44.646Z,22.37
2022-10-17T11:26:41.624Z,24.77
2022-10-17T11:29:12.540Z,25.13
2022-10-17T11:31:49.369Z,23.30
2022-10-17T11:34:27.431Z,23.05
2022-10-17T11:37:02.356Z,20.13
2022-10-17T11:39:49.356Z,21.67
2022-10-17T11:42:21.225Z,21.65
2022-10-17T11:44:48.597Z,23.83
2022-10-17T11:47:26.355Z,22.47
2022-10-17T11:53:13.079Z,25.57
2022-10-17T11:55:42.248Z,22.15
2022-10-17T11:58:32.688Z,22.35
2022-10-17T12:01:27.065Z,22.88
2022-10-17T12:03:56.608Z,26.07
2022-10-17T12:06:31.909Z,21.50
2022-10-17T12:09:15.758Z,22.83
2022-10-17T12:11:56.209Z,22.20
2022-10-17T12:14:47.257Z,20.20
2022-10-17T12:17:23.689Z,23.13
2022-10-17T12:19:50.491Z,22.63
2022-10-17T12:22:26.307Z,21.13
2022-10-17T12:25:18.807Z,21.73
2022-10-17T12:27:47.337Z,25.67
2022-10-17T12:30:24.903Z,20.20
2022-10-17T12:33:15.297Z,23.40
2022-10-17T12:35:42.055Z,20.85
2022-10-17T12:38:20.131Z,24.60
2022-10-17T12:40:52.647Z,22.30
2022-10-17T12:43:28.702Z,21.95
2022-10-17T12:45:56.011Z,21.73
2022-10-17T12:48:34.837Z,24.25
2022-10-17T12:54:01.067Z,29.25
2022-10-17T12:56:44.371Z,31.10
2022-10-17T12:59:20.766Z,35.25
2022-10-17T13:01:51.385Z,28.65
2022-10-17T13:04:18.557Z,26.08
2022-10-17T13:06:49.798Z,25.17
2022-10-17T13:09:52.315Z,25.45
2022-10-17T13:12:23.002Z,24.83
2022-10-17T13:14:53.580Z,20.35
2022-10-17T13:17:28.857Z,25.83
2022-10-17T13:19:56.001Z,27.65
2022-10-17T13:22:28.145Z,25.30
2022-10-17T13:25:12.493Z,25.35
2022-10-17T13:27:41.544Z,23.75
2022-10-17T13:30:31.101Z,23.30
2022-10-17T13:32:59.347Z,32.45
2022-10-17T13:35:59.075Z,29.38
2022-10-17T13:38:28.607Z,29.25
2022-10-17T13:41:02.009Z,24.55
2022-10-17T13:43:42.567Z,26.85
2022-10-17T13:46:36.037Z,23.50
2022-10-17T13:49:15.626Z,28.92
2022-10-17T13:51:46.663Z,27.58
2022-10-17T13:54:25.374Z,29.45
2022-10-17T13:56:57.292Z,22.55
2022-10-17T13:59:32.717Z,27.38
2022-10-17T14:02:01.652Z,23.92
2022-10-17T14:04:44.914Z,23.48
2022-10-17T14:07:24.564Z,23.98
2022-10-17T14:09:51.357Z,21.67
2022-10-17T14:12:19.275Z,26.40
2022-10-17T14:15:09.755Z,24.98
2022-10-17T14:17:39.904Z,25.88
2022-10-17T14:20:40.688Z,18.98
2022-10-17T14:23:21.047Z,24.20
2022-10-17T14:25:42.274Z,19.98
2022-10-17T14:28:18.436Z,25.08
2022-10-17T14:31:01.693Z,21.73
2022-10-17T14:33:31.935Z,22.65
2022-10-17T14:36:00.223Z,22.45
2022-10-17T14:38:27.261Z,18.67
2022-10-17T14:41:41.302Z,22.52
2022-10-17T14:44:24.742Z,24.00
2022-10-17T14:47:00.089Z,27.58
2022-10-17T14:49:40.156Z,19.38
2022-10-17T14:52:19.238Z,20.63
2022-10-17T14:54:47.663Z,23.33
2022-10-17T14:57:24.781Z,21.80
2022-10-17T14:59:55.752Z,26.45
2022-10-17T15:02:29.883Z,23.42
2022-10-17T15:04:57.197Z,24.40
2022-10-17T15:07:26.157Z,24.60
2022-10-17T15:09:53.742Z,29.60
2022-10-17T15:12:25.285Z,21.23
2022-10-17T15:14:52.453Z,24.75
2022-10-17T15:17:21.138Z,23.42
2022-10-17T15:19:48.483Z,25.23
2022-10-17T15:22:18.265Z,24.85
2022-10-17T15:24:48.382Z,21.52
2022-10-17T15:27:24.869Z,22.92
2022-10-17T15:29:52.892Z,25.85
2022-10-17T15:32:19.722Z,23.63
2022-10-17T15:34:48.606Z,21.92
2022-10-17T15:37:18.719Z,22.67
2022-10-17T15:39:53.070Z,21.23
2022-10-17T15:42:27.939Z,20.95
2022-10-17T15:44:54.896Z,21.90
2022-10-17T15:47:31.210Z,24.67
2022-10-17T15:50:00.969Z,22.98
2022-10-17T15:52:27.859Z,24.55
2022-10-17T15:55:01.039Z,23.40
2022-10-17T15:57:33.885Z,27.52
2022-10-17T16:00:00.849Z,29.02
2022-10-17T16:02:27.729Z,25.00
2022-10-17T16:04:54.637Z,24.60
2022-10-17T16:07:21.775Z,25.17
2022-10-17T16:09:50.700Z,22.60
2022-10-17T16:12:28.099Z,30.60
2022-10-17T16:14:57.490Z,25.02
2022-10-17T16:17:26.866Z,31.58
2022-10-17T16:19:56.356Z,27.30
2022-10-17T16:22:36.524Z,22.95
2022-10-17T16:25:09.965Z,22.00
2022-10-17T16:27:37.117Z,23.85
2022-10-17T16:30:07.932Z,26.00
2022-10-17T16:32:36.888Z,20.60
2022-10-17T16:35:04.153Z,25.07
2022-10-17T16:37:30.974Z,25.48
2022-10-17T16:39:57.779Z,25.00
2022-10-17T16:42:26.780Z,24.75
2022-10-17T16:44:53.524Z,22.13
2022-10-17T16:47:20.315Z,24.00
2022-10-17T16:49:47.198Z,25.77
2022-10-17T16:52:16.198Z,24.30
2022-10-17T16:54:45.636Z,26.67
2022-10-17T16:57:12.427Z,24.98
2022-10-17T16:59:41.782Z,29.43
2022-10-17T17:02:12.086Z,30.00
2022-10-17T17:04:41.259Z,22.77
2022-10-17T17:07:10.257Z,26.03
2022-10-17T17:09:42.678Z,23.57
2022-10-17T17:12:09.414Z,26.50
2022-10-17T17:14:38.635Z,29.20
2022-10-17T17:17:05.430Z,25.37
2022-10-17T17:19:32.236Z,26.80
2022-10-17T17:21:58.978Z,25.03
2022-10-17T17:24:28.250Z,24.80
2022-10-17T17:26:55.976Z,27.20
2022-10-17T17:29:25.938Z,22.83
2022-10-17T17:31:52.705Z,23.97
2022-10-17T17:34:22.014Z,25.90
2022-10-17T17:36:48.858Z,27.90
2022-10-17T17:39:18.151Z,25.17
2022-10-17T17:41:45.723Z,28.07
2022-10-17T17:44:16.407Z,27.23
2022-10-17T17:46:44.205Z,28.30
2022-10-17T17:49:13.802Z,27.90
2022-10-17T17:51:46.667Z,30.80
2022-10-17T17:54:13.672Z,26.47
2022-10-17T17:56:45.019Z,23.87
2022-10-17T17:59:12.707Z,26.37
2022-10-17T18:01:46.789Z,28.27
2022-10-17T18:04:13.718Z,25.70
2022-10-17T18:06:45.277Z,25.17
2022-10-17T18:09:12.076Z,38.43
2022-10-17T18:11:38.874Z,29.77
2022-10-17T18:14:10.696Z,28.33
2022-10-17T18:16:40.007Z,28.17
2022-10-17T18:19:10.623Z,30.87
2022-10-17T18:21:37.773Z,28.97
2022-10-17T18:24:04.980Z,27.60
2022-10-17T18:26:36.965Z,28.00
2022-10-17T18:29:04.285Z,28.77
2022-10-17T18:31:36.410Z,30.93
2022-10-17T18:34:03.435Z,31.33
2022-10-17T18:36:31.121Z,30.27
2022-10-17T18:39:00.678Z,31.00
2022-10-17T18:41:27.736Z,30.17
2022-10-17T18:43:55.128Z,27.43
2022-10-17T18:46:25.855Z,27.63
2022-10-17T18:48:52.846Z,28.23
2022-10-17T18:51:21.021Z,28.47
2022-10-17T18:53:50.552Z,27.87
2022-10-17T18:56:20.013Z,34.27
2022-10-17T18:58:46.928Z,28.60
2022-10-17T19:01:17.868Z,27.53
2022-10-17T19:03:47.781Z,28.90
2022-10-17T19:06:15.865Z,29.07
2022-10-17T19:08:42.883Z,31.47
2022-10-17T19:11:16.990Z,29.30
2022-10-17T19:16:14.798Z,32.10
2022-10-17T19:18:41.738Z,32.93
2022-10-17T19:21:09.730Z,29.07
2022-10-17T19:23:36.778Z,29.00
2022-10-17T19:26:07.710Z,27.67
2022-10-17T19:28:35.137Z,27.00
2022-10-17T19:31:02.024Z,27.97
2022-10-17T19:36:03.084Z,26.77
2022-10-17T19:38:29.828Z,29.47
2022-10-17T19:43:29.514Z,27.73
2022-10-17T19:46:09.662Z,32.00
2022-10-17T19:48:39.065Z,29.13
2022-10-17T19:51:06.688Z,31.73
2022-10-17T19:53:39.020Z,32.37
2022-10-17T19:56:06.225Z,29.13
2022-10-17T19:58:33.702Z,29.20
2022-10-17T20:01:04.801Z,29.07
2022-10-17T20:03:31.645Z,29.20
2022-10-17T20:05:58.376Z,30.30
2022-10-17T20:10:55.327Z,26.60
2022-10-17T20:13:24.290Z,29.87
2022-10-17T20:15:55.117Z,26.93
2022-10-17T20:18:21.910Z,30.63
2022-10-17T20:20:48.717Z,29.37
2022-10-17T20:23:15.462Z,31.60
2022-10-17T20:25:42.227Z,28.80
2022-10-17T20:28:11.298Z,30.73
2022-10-17T20:30:38.123Z,26.30
2022-10-17T20:33:04.983Z,30.33
2022-10-17T20:35:34.263Z,29.00
2022-10-17T20:38:05.708Z,31.77
2022-10-17T20:40:35.965Z,28.00
2022-10-17T20:43:04.490Z,31.67
2022-10-17T20:45:44.258Z,30.07
2022-10-17T20:48:20.061Z,30.60
2022-10-17T20:50:46.805Z,29.63
2022-10-17T20:56:08.822Z,30.87
2022-10-17T20:58:38.023Z,29.13
2022-10-17T21:01:06.881Z,26.17
2022-10-17T21:03:37.827Z,27.10
2022-10-17T21:06:10.759Z,28.67
2022-10-17T21:08:37.578Z,27.80
2022-10-17T21:11:08.515Z,31.33
2022-10-17T21:13:40.325Z,35.07
2022-10-17T21:16:10.890Z,25.43
2022-10-17T21:18:37.755Z,29.93
2022-10-17T21:21:17.463Z,34.73
2022-10-17T21:23:45.514Z,29.30
2022-10-17T21:26:12.824Z,32.90
2022-10-17T21:28:42.920Z,33.13
2022-10-17T21:31:15.789Z,34.17
2022-10-17T21:33:46.015Z,35.77
2022-10-17T21:36:13.790Z,32.03
2022-10-17T21:38:40.927Z,32.80
2022-10-17T21:41:10.465Z,29.47
2022-10-17T21:43:37.448Z,30.40
2022-10-17T21:46:17.529Z,30.00
2022-10-17T21:48:44.870Z,36.47
2022-10-17T21:51:13.415Z,30.60
2022-10-17T21:53:40.356Z,29.07
2022-10-17T21:56:09.456Z,32.70
2022-10-17T21:58:36.373Z,34.90
2022-10-17T22:01:17.424Z,30.70
2022-10-17T22:03:47.879Z,28.50
2022-10-17T22:06:38.703Z,32.27
2022-10-17T22:09:04.038Z,33.60
2022-10-17T22:11:31.944Z,30.33
2022-10-17T22:14:04.005Z,31.57
2022-10-17T22:16:30.838Z,30.73
2022-10-17T22:19:05.011Z,30.47
2022-10-17T22:21:33.732Z,33.20
2022-10-17T22:24:01.821Z,31.60
2022-10-17T22:26:30.214Z,31.30
2022-10-17T22:28:59.755Z,31.90
2022-10-17T22:31:28.999Z,31.77
2022-10-17T22:34:00.828Z,29.93
2022-10-17T22:36:27.638Z,30.83
2022-10-17T22:38:54.379Z,26.93
2022-10-17T22:41:21.222Z,27.70
2022-10-17T22:43:48.220Z,30.97
2022-10-17T22:46:16.702Z,35.53
2022-10-17T22:48:43.779Z,29.27
2022-10-17T22:51:10.929Z,30.10
2022-10-17T22:53:40.171Z,32.70
2022-10-17T22:56:14.680Z,30.27
2022-10-17T22:58:41.500Z,31.33
2022-10-17T23:01:14.583Z,28.77
2022-10-17T23:03:44.130Z,31.90
2022-10-17T23:06:10.908Z,34.33
2022-10-17T23:08:37.840Z,29.60
2022-10-17T23:11:07.338Z,27.07
2022-10-17T23:13:36.728Z,29.53
2022-10-17T23:16:06.096Z,28.20
2022-10-17T23:18:32.948Z,32.70
2022-10-17T23:21:02.084Z,29.20
2022-10-17T23:23:28.876Z,30.27
2022-10-17T23:25:56.415Z,26.97
2022-10-17T23:28:25.398Z,28.77
2022-10-17T23:30:52.228Z,27.40
2022-10-17T23:33:18.986Z,27.60
2022-10-17T23:35:45.779Z,28.83
2022-10-17T23:38:15.046Z,32.57
2022-10-17T23:40:44.369Z,26.70
2022-10-17T23:43:13.915Z,24.07
2022-10-17T23:48:12.453Z,30.30
2022-10-17T23:50:39.293Z,28.43
2022-10-17T23:53:06.110Z,23.07
2022-10-17T23:55:35.063Z,26.87
2022-10-17T23:58:01.974Z,27.93
